createdAt,value
2023-04-15T00:06:12.723Z,1007.76
2023-04-15T00:34:54.182Z,1007.7
2023-04-15T01:03:39.419Z,1007.71
2023-04-15T01:32:14.984Z,1007.69
2023-04-15T02:01:05.364Z,1007.6
2023-04-15T02:58:29.599Z,1007.75
2023-04-15T03:27:07.650Z,1007.78
2023-04-15T03:55:58.449Z,1007.64
2023-04-15T04:24:46.789Z,1007.69
2023-04-15T04:53:36.633Z,1007.86
2023-04-15T05:51:10.663Z,1008.03
2023-04-15T06:19:49.847Z,1007.98
2023-04-15T06:45:39.568Z,1008.27
2023-04-15T07:14:20.146Z,1008.18
2023-04-15T07:43:01.670Z,1008.28
2023-04-15T08:11:41.926Z,1008.39
2023-04-15T08:40:21.762Z,1008.62
2023-04-15T09:08:52.166Z,1008.77
2023-04-15T09:37:33.285Z,1009.08
2023-04-15T10:06:06.702Z,1009.11
2023-04-15T10:34:47.988Z,1009.22
2023-04-15T11:03:19.016Z,1009.31
2023-04-15T11:31:54.810Z,1009.46
2023-04-15T12:29:18.816Z,1010.01
2023-04-15T12:58:01.672Z,1010.42
2023-04-15T13:26:36.967Z,1010.74
2023-04-15T13:55:28.482Z,1011.01
2023-04-15T14:23:39.382Z,1011.21
2023-04-15T14:52:10.947Z,1011.66
2023-04-15T15:20:51.614Z,1011.94
2023-04-15T15:49:22.510Z,1012.16
2023-04-15T16:18:06.241Z,1012.47
2023-04-15T16:46:41.998Z,1012.87
2023-04-15T17:15:14.269Z,1013.4
2023-04-15T17:44:07.314Z,1013.98
2023-04-15T18:12:30.345Z,1014.63
2023-04-15T18:41:18.230Z,1015.42
2023-04-15T19:09:47.451Z,1016.12
2023-04-15T19:38:36.592Z,1016.63
2023-04-15T20:07:16.018Z,1016.93
2023-04-15T20:35:56.101Z,1017.18
2023-04-15T21:04:40.537Z,1017.43
2023-04-15T21:33:22.558Z,1017.73
2023-04-15T22:02:02.614Z,1017.93
2023-04-15T22:30:31.563Z,1018.2
2023-04-15T22:59:13.554Z,1018.46
2023-04-15T23:27:47.235Z,1018.55
2023-04-15T23:56:37.355Z,1018.64
